Flight Track Log - Related Links

Times and Time Zones

All times are in EDT time to prevent confusion due to time zone crossing. See the AWE639 flight status page for this flight to view local times or setup timezone preferences in your user account.

Time Position Orientation Groundspeed Altitude Reporting Facility
EDT Latitude Longitude Course Direction KTS MPH feet Rate Location/Type
Sun 11:06:15 PM 33.4379 -112.0415 124° Southeast  Level FlightAware Approximate
Sun 11:07:03 PM 33.4333 -112.0333 239° Southwest 161 185 1,800  Level Phoenix TRACON
Sun 11:07:45 PM 33.4167 -112.0667 257° West 177 204 2,900 1,556 Climbing Phoenix TRACON
Sun 11:08:51 PM 33.4000 -112.1500 283° West 232 267 4,600 1,667 Climbing Phoenix TRACON
Sun 11:09:51 PM 33.4167 -112.2333 270° West 270 311 6,400 2,158 Climbing Phoenix TRACON
Sun 11:10:45 PM 33.4167 -112.3167 275° West 280 322 8,700 2,164 Climbing Phoenix TRACON
Sun 11:11:53 PM 33.4242 -112.4211 276° West 303 349 10,800 1,500 Climbing Albuquerque Center
Sun 11:12:53 PM 33.4325 -112.5211 274° West 317 365 11,900 1,700 Climbing Albuquerque Center
Sun 11:13:53 PM 33.4394 -112.6483 276° West 354 407 14,200 2,100 Climbing Albuquerque Center
Sun 11:14:53 PM 33.4506 -112.7736 278° West 374 430 16,100 2,400 Climbing Albuquerque Center
Sun 11:15:53 PM 33.4658 -112.8989 284° West 389 448 19,000 2,400 Climbing Albuquerque Center
Sun 11:16:53 PM 33.4911 -113.0253 282° West 389 448 20,900 1,800 Climbing Albuquerque Center
Sun 11:17:53 PM 33.5158 -113.1614 284° West 401 461 22,600 1,600 Climbing Albuquerque Center
Sun 11:18:53 PM 33.5431 -113.2903 282° West 401 461 24,100 1,500 Climbing Albuquerque Center
Sun 11:19:53 PM 33.5675 -113.4242 282° West 407 468 25,600 1,400 Climbing Albuquerque Center
Sun 11:20:53 PM 33.5917 -113.5653 282° West 417 480 26,900 1,182 Climbing Albuquerque Center
Sun 11:22:10 PM 33.6267 -113.7614 284° West 429 494 28,300 1,043 Climbing Los Angeles Center
Sun 11:23:11 PM 33.6564 -113.9078 282° West 434 499 29,300 992 Climbing Los Angeles Center
Sun 11:24:11 PM 33.6819 -114.0542 284° West 446 513 30,300 1,000 Climbing Los Angeles Center
Sun 11:25:11 PM 33.7136 -114.2058 280° West 459 528 31,300 850 Climbing Los Angeles Center
Sun 11:26:11 PM 33.7347 -114.3578 283° West 464 534 32,000 350 Climbing Los Angeles Center
Sun 11:27:11 PM 33.7639 -114.5094 276° West 469 540 32,000 -50 Level Los Angeles Center
Sun 11:28:11 PM 33.7761 -114.6517 276° West 456 525 31,900  Descending Los Angeles Center
Sun 11:29:11 PM 33.7883 -114.8017 274° West 451 519 32,000 50 Climbing Los Angeles Center
Sun 11:30:11 PM 33.7961 -114.9514 274° West 445 512 32,000  Level Los Angeles Center
Sun 11:31:11 PM 33.8039 -115.0989 274° West 445 512 32,000 -50 Level Los Angeles Center
Sun 11:32:11 PM 33.8133 -115.2461 273° West 445 512 31,900 -50 Descending Los Angeles Center
Sun 11:33:11 PM 33.8206 -115.3936 273° West 445 512 31,900 50 Level Los Angeles Center
Sun 11:34:11 PM 33.8275 -115.5411 274° West 445 512 32,000 50 Climbing Los Angeles Center
Sun 11:35:11 PM 33.8364 -115.6911 273° West 445 512 32,000 -350 Level Los Angeles Center
Sun 11:36:11 PM 33.8431 -115.8286 274° West 450 518 31,300 -850 Descending Los Angeles Center
Sun 11:37:11 PM 33.8517 -115.9786 272° West 450 518 30,300 -1,450 Descending Los Angeles Center
Sun 11:38:11 PM 33.8561 -116.1261 273° West 450 518 28,400 -2,050 Descending Los Angeles Center
Sun 11:39:11 PM 33.8622 -116.2714 274° West 450 518 26,200 -2,750 Descending Los Angeles Center
Sun 11:40:11 PM 33.8703 -116.4239 275° West 450 518 22,900 -3,650 Descending Los Angeles Center
Sun 11:41:11 PM 33.8803 -116.5717 273° West 450 518 18,900 -3,450 Descending Los Angeles Center
Sun 11:42:11 PM 33.8878 -116.7292 274° West 440 506 16,000 -2,450 Descending Los Angeles Center
Sun 11:43:11 PM 33.8936 -116.8419 273° West 427 491 14,000 -1,983 Descending Los Angeles Center
Sun 11:44:12 PM 33.9000 -116.9833 292° West 380 437 12,000 -1,770 Descending Southern California TRACON
Sun 11:45:13 PM 33.9333 -117.0833 292° West 340 391 10,400 -1,736 Descending Southern California TRACON
Sun 11:46:13 PM 33.9667 -117.1833 306° West 306 352 8,500 -2,100 Descending Southern California TRACON
Sun 11:47:13 PM 34.0167 -117.2667 296° West 290 334 6,200 -2,083 Descending Southern California TRACON
Sun 11:48:14 PM 34.0500 -117.3500 270° West 261 300 4,300 -1,339 Descending Southern California TRACON
Sun 11:49:14 PM 34.0500 -117.4167 270° West 217 250 3,500 -900 Descending Southern California TRACON
Sun 11:50:14 PM 34.0500 -117.4833 270° West 190 219 2,500 -1,000 Descending Southern California TRACON

Login

Don't have an account? Register now (free) for customized features, flight alerts, and more!